Time;durP1;ratioP1;P1;durP2;ratioP2;P2;SDS_P1;SDS_P2;PMS_P1;PMS_P2;Temp;Humidity;BMP_temperature;BMP_pressure;BME280_temperature;BME280_humidity;BME280_pressure;Samples;Min_cycle;Max_cycle;Signal;HPM_P1;HPM_P2
2023/08/19 00:00:17;;;;;;;11.88;5.88;;;;;;;24.39;66.93;100705.22;4972776;28;20088;-81
2023/08/19 00:02:43;;;;;;;13.55;5.72;;;;;;;24.45;66.92;100707.13;4972746;28;20031;-80
2023/08/19 00:05:09;;;;;;;18.33;6.90;;;;;;;24.43;66.60;100687.25;4972717;28;20114;-83
2023/08/19 00:07:35;;;;;;;11.07;5.65;;;;;;;24.49;66.81;100697.38;4972304;28;20500;-81
2023/08/19 00:10:02;;;;;;;7.18;5.57;;;;;;;24.54;66.74;100705.84;4972071;28;20030;-80
2023/08/19 00:12:28;;;;;;;18.55;5.45;;;;;;;24.54;66.13;100700.34;4972131;28;20029;-79
2023/08/19 00:14:55;;;;;;;13.57;6.20;;;;;;;24.59;66.28;100703.28;4971279;28;20046;-80
2023/08/19 00:17:22;;;;;;;14.80;6.13;;;;;;;24.58;66.85;100712.59;4971946;28;20069;-80
2023/08/19 00:19:47;;;;;;;8.50;5.78;;;;;;;24.62;66.11;100708.34;4971966;28;20074;-79
2023/08/19 00:22:13;;;;;;;17.77;5.68;;;;;;;24.62;66.39;100697.34;4970866;28;20082;-81
2023/08/19 00:24:38;;;;;;;13.25;5.60;;;;;;;24.54;66.57;100702.22;4971754;28;20031;-82
2023/08/19 00:27:04;;;;;;;18.83;5.95;;;;;;;24.41;67.37;100689.34;4971866;28;20038;-80
2023/08/19 00:29:29;;;;;;;14.65;6.20;;;;;;;24.35;67.27;100690.19;4972256;28;20027;-80
2023/08/19 00:31:55;;;;;;;12.68;6.55;;;;;;;24.36;67.58;100689.16;4971759;28;20487;-81
2023/08/19 00:34:21;;;;;;;12.57;5.93;;;;;;;24.30;67.63;100698.25;4971843;28;20511;-79
2023/08/19 00:36:47;;;;;;;16.40;6.55;;;;;;;24.33;67.65;100692.31;4972008;28;20026;-79
2023/08/19 00:39:12;;;;;;;14.35;6.30;;;;;;;24.27;67.54;100685.78;4971947;28;20033;-79
2023/08/19 00:41:38;;;;;;;8.30;5.43;;;;;;;24.16;67.96;100685.53;4970178;28;20073;-79
2023/08/19 00:44:04;;;;;;;11.93;5.95;;;;;;;24.19;68.42;100696.13;4971805;28;20027;-79
2023/08/19 00:46:30;;;;;;;11.23;7.07;;;;;;;24.15;68.74;100689.38;4972158;28;20502;-81
2023/08/19 00:48:57;;;;;;;21.13;6.03;;;;;;;24.15;68.68;100689.38;4971699;28;20172;-80
2023/08/19 00:51:23;;;;;;;18.95;6.13;;;;;;;24.04;69.04;100681.72;4971705;28;20030;-79
2023/08/19 00:53:48;;;;;;;11.65;6.15;;;;;;;24.05;69.21;100688.91;4971558;28;20023;-81
2023/08/19 00:56:14;;;;;;;11.15;6.78;;;;;;;24.08;68.98;100689.34;4971343;28;20038;-79
2023/08/19 00:58:40;;;;;;;24.92;6.80;;;;;;;24.09;69.76;100698.44;4965705;28;20107;-79
2023/08/19 01:01:07;;;;;;;21.05;6.97;;;;;;;24.10;69.42;100687.22;4952454;28;20137;-79
2023/08/19 01:03:33;;;;;;;13.85;6.55;;;;;;;24.09;69.81;100680.03;4952519;28;20037;-81
2023/08/19 01:06:10;;;;;;;9.38;6.15;;;;;;;24.08;70.51;100682.97;4952189;28;20484;-80
2023/08/19 01:09:03;;;;;;;17.92;6.65;;;;;;;24.09;70.54;100684.69;4966915;28;20723;-78
2023/08/19 01:11:32;;;;;;;14.93;6.80;;;;;;;24.01;71.40;100676.63;4911389;29;20044;-80
2023/08/19 01:14:20;;;;;;;10.57;7.15;;;;;;;24.08;71.57;100693.97;4911703;29;20067;-80
2023/08/19 01:16:50;;;;;;;15.65;7.15;;;;;;;24.12;71.17;100689.78;4911442;29;20072;-80
2023/08/19 01:19:23;;;;;;;15.43;6.93;;;;;;;24.18;71.23;100705.44;4911109;29;20031;-81
2023/08/19 01:21:52;;;;;;;11.55;6.53;;;;;;;24.16;71.78;100704.78;4895389;29;20048;-79
2023/08/19 01:24:20;;;;;;;17.15;6.97;;;;;;;24.19;71.93;100693.38;4911605;29;20062;-79
2023/08/19 01:26:46;;;;;;;10.57;7.30;;;;;;;24.22;71.83;100695.69;4911354;29;20578;-81
2023/08/19 01:29:11;;;;;;;12.95;6.80;;;;;;;24.29;71.36;100702.03;4911005;29;20058;-81
2023/08/19 01:31:37;;;;;;;16.92;7.28;;;;;;;24.20;71.83;100698.66;4911751;29;20829;-80
2023/08/19 01:34:03;;;;;;;11.25;7.47;;;;;;;24.25;71.31;100703.50;4911830;29;20516;-80
2023/08/19 01:36:37;;;;;;;10.73;6.43;;;;;;;24.29;71.04;100702.03;4911309;29;20047;-79
2023/08/19 01:39:07;;;;;;;16.23;7.18;;;;;;;24.30;70.33;100703.75;4911242;29;20036;-81
2023/08/19 01:41:34;;;;;;;12.80;6.32;;;;;;;24.25;70.89;100700.75;4911041;29;20032;-79
2023/08/19 01:44:01;;;;;;;16.98;7.03;;;;;;;24.16;71.23;100691.03;4911194;29;20032;-81
2023/08/19 01:46:28;;;;;;;21.52;6.13;;;;;;;24.16;71.21;100688.28;4911654;29;20032;-80
2023/08/19 01:48:54;;;;;;;13.82;6.80;;;;;;;24.21;71.34;100707.75;4942165;28;20039;-79
2023/08/19 01:51:19;;;;;;;17.02;6.70;;;;;;;24.21;71.08;100699.50;4953939;28;20502;-80
2023/08/19 01:53:45;;;;;;;16.70;6.80;;;;;;;24.14;71.27;100683.03;4958255;28;20035;-79
2023/08/19 01:56:13;;;;;;;10.68;6.10;;;;;;;24.15;71.56;100700.38;4953215;28;20020;-79
2023/08/19 01:58:39;;;;;;;14.45;6.70;;;;;;;24.15;71.70;100700.38;4957659;28;20132;-77
2023/08/19 02:01:09;;;;;;;14.55;7.30;;;;;;;24.07;72.22;100698.63;4968535;28;20078;-81
2023/08/19 02:03:34;;;;;;;15.65;6.82;;;;;;;24.09;72.29;100701.19;4967024;28;20031;-80
2023/08/19 02:06:00;;;;;;;9.50;6.65;;;;;;;24.18;72.06;100708.19;4956691;28;20122;-80
2023/08/19 02:08:25;;;;;;;16.40;7.05;;;;;;;24.13;72.29;100702.47;4952972;28;20027;-82
2023/08/19 02:10:51;;;;;;;9.57;6.07;;;;;;;24.06;72.33;100698.84;4952905;28;20023;-81
2023/08/19 02:13:16;;;;;;;13.43;6.20;;;;;;;24.12;72.16;100706.28;4952977;28;20031;-80
2023/08/19 02:15:41;;;;;;;16.73;6.70;;;;;;;24.02;72.71;100705.81;4952392;28;20480;-80
2023/08/19 02:18:07;;;;;;;12.48;6.25;;;;;;;24.09;72.55;100707.53;4951727;28;20029;-80
2023/08/19 02:20:32;;;;;;;13.07;7.05;;;;;;;24.08;73.14;100699.47;4950946;28;20047;-80
2023/08/19 02:23:00;;;;;;;14.95;6.97;;;;;;;24.03;73.33;100707.50;4951007;28;20514;-80
2023/08/19 02:25:25;;;;;;;13.50;7.18;;;;;;;23.93;73.82;100698.84;4951048;28;20062;-80
2023/08/19 02:27:51;;;;;;;15.63;6.78;;;;;;;23.87;74.24;100694.19;4951308;28;20479;-82
2023/08/19 02:30:16;;;;;;;11.90;6.68;;;;;;;23.90;74.10;100697.34;4951068;28;20407;-79
2023/08/19 02:32:42;;;;;;;11.38;5.82;;;;;;;23.76;74.66;100679.13;4951156;28;20027;-80
2023/08/19 02:35:09;;;;;;;12.57;6.10;;;;;;;23.85;74.75;100705.38;4950719;28;20038;-80
2023/08/19 02:37:34;;;;;;;13.52;6.32;;;;;;;23.77;75.44;100694.56;4951106;28;20480;-81
2023/08/19 02:40:00;;;;;;;15.38;6.90;;;;;;;23.69;75.46;100684.66;4953683;28;20046;-80
2023/08/19 02:42:25;;;;;;;11.88;6.28;;;;;;;23.74;75.37;100695.00;4954484;28;20027;-80
2023/08/19 02:44:51;;;;;;;19.75;7.93;;;;;;;23.71;76.15;100710.00;4955057;28;20039;-79
2023/08/19 02:47:16;;;;;;;14.40;7.35;;;;;;;23.72;76.40;100700.72;4954566;28;20526;-82
2023/08/19 02:49:43;;;;;;;16.05;6.85;;;;;;;23.67;76.39;100689.50;4954389;28;20023;-80
2023/08/19 02:52:09;;;;;;;14.50;7.35;;;;;;;23.76;76.47;100701.13;4954485;28;20019;-80
2023/08/19 02:54:34;;;;;;;15.38;7.68;;;;;;;23.76;76.45;100703.88;4954637;28;20035;-80
2023/08/19 02:57:00;;;;;;;12.88;6.80;;;;;;;23.69;77.24;100701.13;4954350;28;20039;-80
2023/08/19 02:59:25;;;;;;;16.17;7.43;;;;;;;23.70;77.62;100702.81;4954409;28;20035;-80
2023/08/19 03:01:51;;;;;;;9.05;6.75;;;;;;;23.66;77.58;100696.06;4954285;28;20106;-80
2023/08/19 03:04:16;;;;;;;16.92;7.25;;;;;;;23.70;77.79;100707.44;4954189;28;20027;-81
2023/08/19 03:06:41;;;;;;;20.63;8.15;;;;;;;23.73;78.16;100702.38;4954037;28;20113;-80
2023/08/19 03:09:07;;;;;;;12.55;7.28;;;;;;;23.62;78.08;100689.28;4954318;28;20042;-80
2023/08/19 03:11:33;;;;;;;18.90;6.75;;;;;;;23.69;78.48;100701.13;4952395;28;20073;-82
2023/08/19 03:13:59;;;;;;;14.13;7.43;;;;;;;23.64;78.64;100698.13;4953759;28;20067;-84
2023/08/19 03:16:24;;;;;;;18.20;6.90;;;;;;;23.71;78.72;100696.25;4953755;28;20028;-81
2023/08/19 03:18:50;;;;;;;17.45;7.85;;;;;;;23.68;78.65;100696.69;4953935;28;20487;-80
2023/08/19 03:21:15;;;;;;;13.85;7.78;;;;;;;23.70;79.22;100707.44;4968565;28;20051;-82
2023/08/19 03:23:41;;;;;;;11.98;7.15;;;;;;;23.65;79.17;100702.59;4954019;28;20034;-79
2023/08/19 03:26:06;;;;;;;18.13;7.80;;;;;;;23.68;79.16;100710.41;4953626;28;20031;-79
2023/08/19 03:28:31;;;;;;;14.68;6.45;;;;;;;23.73;79.57;100713.38;4953934;28;20450;-82
2023/08/19 03:30:57;;;;;;;12.93;7.10;;;;;;;23.69;79.14;100706.63;4953679;28;20031;-78
2023/08/19 03:33:22;;;;;;;17.35;7.10;;;;;;;23.77;79.21;100709.16;4953739;28;20027;-80
2023/08/19 03:35:48;;;;;;;9.65;6.40;;;;;;;23.80;79.16;100722.47;4953907;28;20090;-82
2023/08/19 03:38:13;;;;;;;14.77;6.82;;;;;;;23.77;79.29;100709.16;4953706;28;20019;-80
2023/08/19 03:40:39;;;;;;;16.00;7.95;;;;;;;23.84;79.19;100710.03;4953194;28;20035;-81
2023/08/19 03:43:07;;;;;;;29.15;11.85;;;;;;;23.89;79.09;100709.38;4953461;28;20027;-80
2023/08/19 03:45:33;;;;;;;38.58;18.08;;;;;;;23.89;78.82;100714.88;4953390;28;20114;-79
2023/08/19 03:47:59;;;;;;;22.95;9.68;;;;;;;23.93;78.35;100707.91;4968340;28;20035;-79
2023/08/19 03:50:24;;;;;;;13.55;7.00;;;;;;;23.99;78.50;100703.47;4953215;28;20109;-81
2023/08/19 03:52:50;;;;;;;16.40;6.85;;;;;;;24.08;78.71;100715.97;4953520;28;20027;-80
2023/08/19 03:55:15;;;;;;;12.68;7.50;;;;;;;24.14;78.04;100721.50;4953048;28;20463;-80
2023/08/19 03:57:41;;;;;;;14.38;6.95;;;;;;;24.15;77.81;100714.09;4953149;28;20027;-80
2023/08/19 04:00:07;;;;;;;14.50;7.45;;;;;;;24.23;77.11;100708.38;4953678;28;20057;-80
2023/08/19 04:02:32;;;;;;;19.52;7.53;;;;;;;24.34;77.40;100727.00;4953311;28;20165;-82
2023/08/19 04:04:59;;;;;;;12.07;7.25;;;;;;;24.38;76.75;100712.63;4953232;28;20090;-79
2023/08/19 04:07:24;;;;;;;11.95;6.88;;;;;;;24.42;76.71;100717.69;4953345;28;20023;-79
2023/08/19 04:09:50;;;;;;;16.17;6.43;;;;;;;24.43;76.35;100709.25;4952411;28;20053;-80
2023/08/19 04:12:15;;;;;;;18.27;6.78;;;;;;;24.56;75.46;100711.09;4952905;28;20660;-81
2023/08/19 04:14:42;;;;;;;12.35;6.25;;;;;;;24.52;75.51;100707.13;4952737;28;20070;-80
2023/08/19 04:17:07;;;;;;;12.75;6.65;;;;;;;24.56;75.49;100714.72;4952664;28;20031;-81
2023/08/19 04:19:33;;;;;;;8.05;5.82;;;;;;;24.60;75.19;100715.97;4952623;28;20046;-82
2023/08/19 04:21:58;;;;;;;17.88;6.82;;;;;;;24.71;74.96;100704.31;4952396;28;20665;-80
2023/08/19 04:24:24;;;;;;;17.92;6.43;;;;;;;24.77;74.45;100697.94;4952432;28;20028;-84
2023/08/19 04:26:49;;;;;;;21.25;8.10;;;;;;;24.83;74.03;100688.88;4952527;28;20043;-81
2023/08/19 04:29:14;;;;;;;18.17;8.45;;;;;;;24.83;73.92;100688.03;4952959;28;20039;-81
2023/08/19 04:31:40;;;;;;;11.50;6.10;;;;;;;24.99;73.26;100694.94;4952919;28;20039;-82
2023/08/19 04:34:05;;;;;;;8.70;6.43;;;;;;;24.98;72.55;100674.03;4953286;28;20031;-80
2023/08/19 04:36:31;;;;;;;14.10;5.80;;;;;;;25.15;72.59;100708.25;4952692;28;20027;-79
2023/08/19 04:38:57;;;;;;;19.95;8.02;;;;;;;25.23;71.44;100705.22;4952615;28;20030;-80
2023/08/19 04:41:22;;;;;;;19.90;10.73;;;;;;;25.31;71.13;100710.50;4952483;28;20042;-80
2023/08/19 04:43:47;;;;;;;23.50;7.88;;;;;;;25.37;70.74;100717.91;4951534;28;20035;-80
2023/08/19 04:46:13;;;;;;;20.75;5.60;;;;;;;25.39;70.83;100726.78;4952529;28;20562;-83
2023/08/19 04:48:39;;;;;;;17.70;6.10;;;;;;;25.42;70.47;100716.16;4952745;28;20652;-83
2023/08/19 04:51:04;;;;;;;14.45;8.20;;;;;;;25.59;69.79;100724.81;4952395;28;20113;-82
2023/08/19 04:53:30;;;;;;;18.98;8.30;;;;;;;25.65;69.60;100720.31;4952508;28;20456;-79
2023/08/19 04:56:01;;;;;;;15.35;6.15;;;;;;;25.65;68.79;100720.31;4952101;28;20131;-79
2023/08/19 04:58:27;;;;;;;10.27;5.37;;;;;;;25.68;69.23;100720.75;4952096;28;20031;-82
2023/08/19 05:00:52;;;;;;;22.50;6.25;;;;;;;25.76;68.67;100714.09;4951636;28;20263;-81
2023/08/19 05:03:18;;;;;;;18.20;9.20;;;;;;;25.79;68.76;100717.25;4952108;28;20376;-82
2023/08/19 05:05:44;;;;;;;18.85;8.25;;;;;;;25.77;68.01;100708.38;4953103;28;20090;-84
2023/08/19 05:08:10;;;;;;;19.00;6.55;;;;;;;25.88;67.91;100732.47;4954237;28;20039;-84
2023/08/19 05:10:36;;;;;;;14.25;6.35;;;;;;;25.95;67.79;100732.44;4954764;28;20032;-85
2023/08/19 05:13:02;;;;;;;15.23;6.07;;;;;;;25.87;67.02;100724.44;4959675;28;20031;-85
2023/08/19 05:15:28;;;;;;;23.92;9.35;;;;;;;26.03;66.38;100725.78;4964637;28;20053;-84
2023/08/19 05:17:53;;;;;;;21.48;7.60;;;;;;;26.24;65.50;100747.50;4985904;28;20035;-91
2023/08/19 05:20:19;;;;;;;15.15;6.43;;;;;;;26.34;65.65;100750.59;4977841;28;20042;-85
2023/08/19 05:22:45;;;;;;;13.65;5.53;;;;;;;26.21;65.14;100742.44;4975839;28;20026;-85
2023/08/19 05:25:10;;;;;;;27.85;7.40;;;;;;;26.33;63.31;100752.53;4970771;28;20034;-85
2023/08/19 05:27:36;;;;;;;18.77;7.50;;;;;;;26.20;63.73;100735.25;4972505;28;20003;-85
2023/08/19 05:30:04;;;;;;;12.73;6.93;;;;;;;26.43;62.80;100763.06;4971182;28;20035;-88
2023/08/19 05:32:30;;;;;;;18.65;6.45;;;;;;;26.51;63.55;100771.06;4971720;28;20030;-85
2023/08/19 05:34:55;;;;;;;12.13;5.38;;;;;;;26.44;63.62;100764.75;4970979;28;20046;-83
2023/08/19 05:37:20;;;;;;;10.82;4.72;;;;;;;26.57;61.55;100764.66;4971479;28;20031;-84
2023/08/19 05:39:46;;;;;;;38.90;10.60;;;;;;;26.56;61.79;100773.97;4970858;28;20034;-83
2023/08/19 05:42:12;;;;;;;20.48;7.18;;;;;;;26.55;62.27;100765.91;4971423;28;20018;-84
2023/08/19 05:44:38;;;;;;;21.65;6.03;;;;;;;26.62;62.63;100770.31;4970714;28;20030;-87
2023/08/19 05:47:03;;;;;;;14.68;5.85;;;;;;;26.51;60.01;100751.75;4972867;28;20169;-85
2023/08/19 05:49:29;;;;;;;16.00;6.55;;;;;;;26.75;61.47;100772.97;4971252;28;20620;-84
2023/08/19 05:51:55;;;;;;;28.40;6.55;;;;;;;26.78;61.66;100775.28;4970995;28;20034;-84
2023/08/19 05:54:20;;;;;;;14.95;7.88;;;;;;;26.77;60.27;100776.34;4971339;28;20446;-86
2023/08/19 05:56:46;;;;;;;18.02;5.15;;;;;;;26.77;58.99;100753.41;4972404;28;20031;-84
2023/08/19 05:59:11;;;;;;;18.17;5.97;;;;;;;27.00;58.95;100782.06;4971695;28;20491;-84
2023/08/19 06:01:37;;;;;;;17.80;6.18;;;;;;;27.01;58.78;100766.34;4971984;28;20406;-86
2023/08/19 06:04:02;;;;;;;8.38;4.65;;;;;;;27.15;55.75;100753.25;4972047;28;20027;-84
2023/08/19 06:06:33;;;;;;;13.15;5.68;;;;;;;27.08;56.07;100744.19;4973350;28;20408;-88
2023/08/19 06:08:58;;;;;;;17.20;8.60;;;;;;;27.18;56.40;100744.50;4973525;28;20038;-86
2023/08/19 06:11:23;;;;;;;14.73;6.07;;;;;;;27.44;56.45;100772.69;4973676;28;20396;-89
2023/08/19 06:13:50;;;;;;;22.48;5.68;;;;;;;27.46;56.12;100758.66;4972017;28;20035;-87
2023/08/19 06:16:15;;;;;;;13.38;5.47;;;;;;;27.32;55.20;100726.69;4960605;28;20056;-83
2023/08/19 06:18:41;;;;;;;12.85;5.45;;;;;;;27.63;54.67;100754.16;4954800;28;20106;-81
2023/08/19 06:21:13;;;;;;;15.32;5.57;;;;;;;27.77;54.22;100746.50;4956643;28;20051;-92
2023/08/19 06:23:38;;;;;;;20.27;7.40;;;;;;;27.92;54.24;100758.84;4955886;28;20494;-91
2023/08/19 06:26:04;;;;;;;14.77;4.88;;;;;;;28.01;50.04;100759.38;4955597;29;20035;-85
2023/08/19 06:28:29;;;;;;;23.73;4.70;;;;;;;28.20;49.50;100760.16;4956889;28;20559;-85
2023/08/19 06:30:56;;;;;;;20.70;6.45;;;;;;;28.25;48.97;100752.00;4955576;28;20035;-85
2023/08/19 06:33:22;;;;;;;16.40;5.25;;;;;;;28.44;47.96;100762.72;4957262;28;20023;-87
2023/08/19 06:35:49;;;;;;;38.92;6.50;;;;;;;28.48;46.42;100730.75;4973340;28;20090;-85
2023/08/19 06:38:19;;;;;;;11.75;4.05;;;;;;;28.54;45.99;100717.88;4960208;28;20081;-85
2023/08/19 06:40:50;;;;;;;10.30;5.22;;;;;;;28.75;44.87;100724.75;4976515;28;20427;-86
2023/08/19 06:43:20;;;;;;;31.95;5.10;;;;;;;28.86;44.64;100715.59;4978219;28;20082;-82
2023/08/19 06:45:46;;;;;;;9.75;4.60;;;;;;;29.02;45.44;100742.56;4969413;28;20463;-83
2023/08/19 06:48:15;;;;;;;15.48;5.47;;;;;;;29.10;45.24;100739.41;4971793;28;20015;-85
2023/08/19 06:50:47;;;;;;;19.08;4.38;;;;;;;29.10;45.17;100729.19;4975382;28;20027;-88
2023/08/19 06:53:15;;;;;;;19.75;6.22;;;;;;;29.11;46.22;100719.75;4959147;28;20039;-85
2023/08/19 06:55:44;;;;;;;22.23;6.10;;;;;;;29.41;46.16;100741.78;4958571;28;20035;-83
2023/08/19 06:58:19;;;;;;;26.52;6.50;;;;;;;29.32;46.31;100736.88;4963501;28;20488;-90
2023/08/19 07:00:47;;;;;;;13.50;5.25;;;;;;;29.48;46.79;100769.38;4955046;28;20028;-80
2023/08/19 07:03:14;;;;;;;33.50;5.93;;;;;;;29.28;46.80;100714.34;4969457;28;20031;-85
2023/08/19 07:05:40;;;;;;;29.17;6.97;;;;;;;29.52;47.52;100759.47;4954393;28;20171;-87
2023/08/19 07:08:10;;;;;;;27.67;6.47;;;;;;;29.66;47.51;100760.88;4953811;28;20150;-81
2023/08/19 07:10:36;;;;;;;17.58;5.97;;;;;;;29.66;47.04;100761.69;4953937;28;20094;-88
2023/08/19 07:13:02;;;;;;;18.00;5.97;;;;;;;29.73;47.95;100755.16;4954342;28;20031;-87
2023/08/19 07:15:28;;;;;;;16.30;5.95;;;;;;;29.93;47.85;100783.34;4954018;28;20023;-79
2023/08/19 07:17:57;;;;;;;29.02;7.35;;;;;;;29.85;48.42;100765.16;4953757;28;20502;-81
2023/08/19 07:20:23;;;;;;;17.80;6.25;;;;;;;30.04;47.84;100774.13;4953303;29;20031;-82
2023/08/19 07:22:51;;;;;;;25.00;7.85;;;;;;;30.01;48.39;100758.81;4954073;28;20051;-80
2023/08/19 07:25:19;;;;;;;17.70;5.80;;;;;;;29.98;48.99;100756.53;4955604;28;20031;-91
2023/08/19 07:27:45;;;;;;;17.00;6.28;;;;;;;29.92;49.56;100748.38;4953115;28;20495;-82
2023/08/19 07:30:11;;;;;;;11.35;5.35;;;;;;;30.13;49.47;100767.91;4953503;28;20059;-79
2023/08/19 07:32:40;;;;;;;21.13;5.80;;;;;;;30.17;48.77;100780.22;4953451;28;20078;-84
2023/08/19 07:35:07;;;;;;;19.83;6.97;;;;;;;30.23;48.83;100772.81;4953839;28;20027;-82
2023/08/19 07:37:33;;;;;;;27.88;8.68;;;;;;;30.29;48.73;100765.41;4952966;29;20027;-81
2023/08/19 07:39:59;;;;;;;28.10;9.45;;;;;;;30.44;47.97;100762.94;4953114;29;20038;-81
2023/08/19 07:42:27;;;;;;;18.83;5.75;;;;;;;30.56;47.53;100761.75;4953544;28;20039;-82
2023/08/19 07:44:53;;;;;;;17.50;6.22;;;;;;;30.67;46.53;100762.78;4953689;28;20030;-82
2023/08/19 07:47:19;;;;;;;19.80;6.97;;;;;;;30.55;45.88;100760.06;4953481;28;20118;-83
2023/08/19 07:49:44;;;;;;;22.08;6.50;;;;;;;30.58;46.41;100775.41;4953918;29;20058;-81
2023/08/19 07:52:10;;;;;;;21.52;6.35;;;;;;;30.50;46.25;100767.47;4952566;29;20402;-82
2023/08/19 07:54:35;;;;;;;16.98;5.88;;;;;;;30.49;46.70;100783.28;4955477;28;20432;-82
2023/08/19 07:57:01;;;;;;;16.42;6.03;;;;;;;30.55;46.88;100764.81;4954968;29;20030;-83
2023/08/19 07:59:26;;;;;;;11.70;6.03;;;;;;;30.60;46.81;100751.84;4955011;29;20085;-83
2023/08/19 08:01:52;;;;;;;15.80;5.68;;;;;;;30.71;46.73;100769.47;4953645;29;20060;-83
2023/08/19 08:04:19;;;;;;;18.25;5.60;;;;;;;30.78;47.17;100759.06;4953351;28;20023;-83
2023/08/19 08:06:51;;;;;;;29.83;5.75;;;;;;;30.76;47.01;100755.69;4934413;29;20606;-83
2023/08/19 08:09:16;;;;;;;21.25;5.95;;;;;;;30.88;47.39;100769.47;4953072;28;20038;-84
2023/08/19 08:11:44;;;;;;;13.00;6.07;;;;;;;30.77;47.51;100779.56;4952489;28;20411;-83
2023/08/19 08:14:10;;;;;;;16.20;5.53;;;;;;;30.75;47.62;100776.22;4952914;28;20098;-82
2023/08/19 08:16:35;;;;;;;20.98;7.13;;;;;;;30.82;47.48;100788.00;4952457;28;20460;-83
2023/08/19 08:19:01;;;;;;;20.77;6.18;;;;;;;30.84;46.91;100784.97;4952473;28;20155;-82
2023/08/19 08:21:26;;;;;;;15.85;7.90;;;;;;;30.83;45.64;100784.13;4952894;28;20078;-82
2023/08/19 08:23:54;;;;;;;16.02;6.03;;;;;;;30.78;44.96;100775.72;4952149;28;20023;-84
2023/08/19 08:26:20;;;;;;;11.60;5.10;;;;;;;30.77;44.80;100771.25;4952522;28;20031;-82
2023/08/19 08:28:45;;;;;;;13.88;6.35;;;;;;;30.72;44.84;100771.19;4952381;28;20039;-83
2023/08/19 08:31:11;;;;;;;19.20;6.30;;;;;;;30.60;44.51;100789.88;4952554;28;20084;-82
2023/08/19 08:33:36;;;;;;;14.05;5.82;;;;;;;30.52;44.78;100782.78;4952476;28;20412;-82
2023/08/19 08:36:02;;;;;;;14.45;5.53;;;;;;;30.58;44.31;100770.66;4951940;28;20034;-83
2023/08/19 08:38:27;;;;;;;14.95;5.78;;;;;;;30.49;43.63;100782.44;4952263;29;20023;-81
2023/08/19 08:40:52;;;;;;;18.48;5.78;;;;;;;30.34;43.91;100766.34;4952058;28;20039;-83
2023/08/19 08:43:18;;;;;;;18.55;5.53;;;;;;;30.51;43.77;100780.28;4952579;29;20038;-83
2023/08/19 08:45:44;;;;;;;10.55;5.15;;;;;;;30.66;43.73;100784.16;4952257;28;20031;-83
2023/08/19 08:48:11;;;;;;;10.43;4.57;;;;;;;30.69;41.89;100788.34;4952472;28;20035;-84
2023/08/19 08:50:37;;;;;;;9.90;5.00;;;;;;;30.68;42.49;100775.53;4952146;28;20062;-83
2023/08/19 08:53:02;;;;;;;14.02;5.35;;;;;;;30.83;42.25;100775.78;4952153;28;20054;-84
2023/08/19 08:55:29;;;;;;;14.82;5.57;;;;;;;30.78;41.42;100759.06;4952039;28;20058;-84
2023/08/19 08:57:55;;;;;;;16.98;5.22;;;;;;;31.03;41.35;100773.38;4952377;28;20547;-84
2023/08/19 09:00:20;;;;;;;15.60;4.80;;;;;;;31.07;40.83;100780.06;4951869;28;20037;-83
2023/08/19 09:02:47;;;;;;;22.50;5.00;;;;;;;31.08;41.37;100776.19;4952003;28;20114;-83
2023/08/19 09:05:13;;;;;;;206.57;20.10;;;;;;;31.12;40.23;100748.75;4952121;28;20105;-83
2023/08/19 09:07:41;;;;;;;29.42;6.50;;;;;;;31.27;40.18;100774.81;4951858;28;20451;-84
2023/08/19 09:10:12;;;;;;;11.82;5.43;;;;;;;31.29;40.38;100767.03;4951877;28;20038;-84
2023/08/19 09:12:39;;;;;;;14.97;5.67;;;;;;;31.40;39.83;100758.84;4951756;28;20488;-84
2023/08/19 09:15:06;;;;;;;15.73;5.40;;;;;;;31.48;39.39;100772.28;4952289;29;20294;-84
2023/08/19 09:17:32;;;;;;;13.30;6.20;;;;;;;31.59;39.63;100763.03;4951748;28;20043;-83
2023/08/19 09:20:00;;;;;;;15.95;6.03;;;;;;;31.71;38.89;100755.38;4955933;28;20032;-84
2023/08/19 09:22:25;;;;;;;11.95;5.30;;;;;;;31.80;38.70;100751.84;4951851;28;20050;-83
2023/08/19 09:24:54;;;;;;;10.25;5.45;;;;;;;31.93;38.55;100747.81;4952073;28;20515;-84
2023/08/19 09:27:28;;;;;;;18.25;6.70;;;;;;;32.00;38.37;100748.44;4952254;28;20035;-84
2023/08/19 09:29:54;;;;;;;18.02;6.13;;;;;;;32.20;38.21;100740.31;4951618;28;20106;-83
2023/08/19 09:32:33;;;;;;;14.15;5.55;;;;;;;32.47;37.96;100753.38;4951620;28;20102;-84
2023/08/19 09:35:11;;;;;;;13.52;5.68;;;;;;;32.39;37.56;100731.56;4951724;28;20023;-83
2023/08/19 09:37:37;;;;;;;12.68;5.50;;;;;;;32.51;37.22;100733.06;4933374;29;20070;-84
2023/08/19 09:43:00;;;;;;;13.88;5.75;;;;;;;32.62;37.40;100731.25;4949059;29;20546;-84
2023/08/19 09:45:27;;;;;;;9.10;4.97;;;;;;;32.72;37.36;100726.56;4949156;29;20043;-85
2023/08/19 09:47:53;;;;;;;21.27;5.45;;;;;;;32.77;37.06;100740.56;4948566;28;20050;-83
2023/08/19 09:50:20;;;;;;;13.82;5.05;;;;;;;32.77;37.01;100723.84;4948760;29;20110;-83
2023/08/19 09:52:56;;;;;;;17.85;5.47;;;;;;;32.87;36.73;100742.56;4948688;29;20507;-83
2023/08/19 09:55:24;;;;;;;15.30;4.93;;;;;;;32.93;36.97;100744.28;4948615;29;20027;-83
2023/08/19 09:57:50;;;;;;;10.18;4.45;;;;;;;33.00;36.84;100744.88;4948635;29;20042;-83
2023/08/19 10:00:15;;;;;;;10.68;4.65;;;;;;;32.98;37.18;100741.50;4948774;29;20038;-83
2023/08/19 10:02:41;;;;;;;11.82;5.15;;;;;;;33.06;36.78;100741.00;4948801;29;20031;-83
2023/08/19 10:05:07;;;;;;;9.40;4.32;;;;;;;33.06;37.01;100746.56;4948994;29;20110;-83
2023/08/19 10:07:33;;;;;;;16.00;5.22;;;;;;;32.95;37.00;100757.94;4932631;29;20147;-84
2023/08/19 10:10:06;;;;;;;14.50;5.50;;;;;;;32.94;37.12;100739.53;4932289;29;20030;-85
2023/08/19 10:12:35;;;;;;;11.20;5.18;;;;;;;33.00;36.83;100744.00;4948693;29;20189;-84
2023/08/19 10:15:03;;;;;;;10.48;4.80;;;;;;;32.98;36.96;100729.53;4948692;29;20035;-84
2023/08/19 10:17:32;;;;;;;17.50;4.95;;;;;;;33.15;36.55;100738.59;4948814;29;20063;-84
2023/08/19 10:20:09;;;;;;;12.80;5.53;;;;;;;33.22;36.54;100731.63;4941308;29;20134;-84
2023/08/19 10:22:37;;;;;;;13.55;4.80;;;;;;;33.09;36.55;100709.81;4952147;28;20260;-85
2023/08/19 10:25:04;;;;;;;25.27;5.43;;;;;;;32.95;36.98;100711.41;4950863;28;20534;-84
2023/08/19 10:27:30;;;;;;;7.55;4.88;;;;;;;33.00;36.60;100711.41;4951408;28;20031;-84
2023/08/19 10:29:57;;;;;;;18.20;5.15;;;;;;;33.13;37.21;100710.97;4950991;28;20498;-84
2023/08/19 10:32:32;;;;;;;24.70;5.43;;;;;;;33.14;37.11;100715.44;4951016;28;20078;-84
2023/08/19 10:35:09;;;;;;;12.48;5.47;;;;;;;33.18;37.36;100691.47;4951257;28;20027;-82
2023/08/19 10:37:55;;;;;;;8.07;5.22;;;;;;;33.31;37.01;100718.00;4951042;28;20650;-84
2023/08/19 10:40:23;;;;;;;14.10;5.30;;;;;;;33.29;37.64;100704.34;4951252;28;20034;-82
2023/08/19 10:42:57;;;;;;;17.27;5.28;;;;;;;33.29;37.57;100704.34;4951213;28;20035;-82
2023/08/19 10:45:23;;;;;;;9.68;5.00;;;;;;;33.39;37.71;100700.78;4951238;28;20031;-82
2023/08/19 10:47:51;;;;;;;14.27;5.40;;;;;;;33.51;37.40;100704.16;4951249;28;20042;-83
2023/08/19 10:50:17;;;;;;;10.13;5.22;;;;;;;33.48;37.57;100706.66;4950483;28;20032;-83
2023/08/19 10:53:07;;;;;;;12.60;4.85;;;;;;;33.58;37.57;100706.66;4950790;28;20050;-82
2023/08/19 10:55:51;;;;;;;11.02;5.63;;;;;;;33.62;37.47;100708.69;4950826;28;20034;-83
2023/08/19 10:58:17;;;;;;;8.43;4.70;;;;;;;33.54;37.53;100700.81;4950825;28;20058;-84
2023/08/19 11:00:43;;;;;;;9.30;5.30;;;;;;;33.49;37.57;100702.72;4953261;28;20436;-83
2023/08/19 11:03:09;;;;;;;11.90;5.60;;;;;;;33.56;37.24;100728.44;4954750;28;20027;-83
2023/08/19 11:05:35;;;;;;;21.20;5.65;;;;;;;33.50;37.89;100718.38;4954943;28;20109;-83
2023/08/19 11:08:05;;;;;;;17.63;4.88;;;;;;;33.58;37.80;100724.25;4955134;28;20483;-83
2023/08/19 11:10:32;;;;;;;10.57;4.78;;;;;;;33.63;37.61;100720.69;4954174;28;20113;-83
2023/08/19 11:12:59;;;;;;;18.20;5.72;;;;;;;33.68;37.21;100723.47;4954178;28;20059;-83
2023/08/19 11:15:25;;;;;;;14.20;6.82;;;;;;;33.63;37.54;100721.53;4951732;29;20644;-84
2023/08/19 11:17:51;;;;;;;13.95;5.60;;;;;;;33.75;37.20;100730.47;4952658;29;20042;-83